Time;durP1;ratioP1;P1;durP2;ratioP2;P2;SDS_P1;SDS_P2;PMS_P1;PMS_P2;Temp;Humidity;BMP_temperature;BMP_pressure;BME280_temperature;BME280_humidity;BME280_pressure;Samples;Min_cycle;Max_cycle;Signal;HPM_P1;HPM_P2
2021/07/13 04:00:18;;;;;;;25.70;23.10;;;19.60;99.90;;;;;;6061878;23;20540;31
2021/07/13 04:02:46;;;;;;;26.93;24.30;;;19.60;99.90;;;;;;4971381;28;20461;-67
2021/07/13 04:05:15;;;;;;;26.80;24.00;;;19.60;99.90;;;;;;4955835;28;20467;-68
2021/07/13 04:07:42;;;;;;;27.03;24.23;;;19.60;99.90;;;;;;4954733;29;20480;-67
2021/07/13 04:10:11;;;;;;;25.70;23.23;;;19.70;99.90;;;;;;4953853;29;20468;-67
2021/07/13 04:12:38;;;;;;;27.17;24.40;;;19.70;99.90;;;;;;4956726;28;20471;-68
2021/07/13 04:15:05;;;;;;;28.43;25.60;;;19.80;99.90;;;;;;4962675;28;20610;-67
2021/07/13 04:17:32;;;;;;;26.37;23.97;;;19.80;99.90;;;;;;4974157;28;20499;-68
2021/07/13 04:20:00;;;;;;;25.00;22.70;;;19.90;99.90;;;;;;4972725;28;20468;-67
2021/07/13 04:22:27;;;;;;;27.37;24.63;;;19.90;99.90;;;;;;4973436;28;20510;-67
2021/07/13 04:24:53;;;;;;;25.20;22.80;;;19.90;99.90;;;;;;4955250;28;20471;-67
2021/07/13 04:27:20;;;;;;;26.70;23.90;;;20.00;99.90;;;;;;4953954;29;20472;-67
2021/07/13 04:29:47;;;;;;;24.50;22.20;;;20.20;99.90;;;;;;4959574;28;20555;-67
2021/07/13 04:32:13;;;;;;;22.50;20.50;;;20.50;99.90;;;;;;4953989;29;20845;-67
2021/07/13 04:34:40;;;;;;;22.30;20.30;;;20.80;99.90;;;;;;4959379;28;20465;-66
2021/07/13 04:37:08;;;;;;;18.77;17.27;;;21.40;99.90;;;;;;4954279;29;20469;-67
2021/07/13 04:39:35;;;;;;;19.07;17.40;;;21.80;99.90;;;;;;4955937;28;20465;-66
2021/07/13 04:42:01;;;;;;;17.50;16.10;;;22.00;99.90;;;;;;4954312;29;20555;-69
2021/07/13 04:44:28;;;;;;;17.23;15.77;;;22.30;99.90;;;;;;4965691;28;20974;-69
2021/07/13 04:46:54;;;;;;;19.10;17.50;;;22.40;99.90;;;;;;4973568;28;20467;-69
2021/07/13 04:49:21;;;;;;;18.20;16.63;;;22.50;99.90;;;;;;4969577;28;20546;-68
2021/07/13 04:51:48;;;;;;;17.90;16.60;;;22.80;99.90;;;;;;4973224;28;20499;-68
2021/07/13 04:54:16;;;;;;;17.83;16.40;;;22.70;99.90;;;;;;4969202;28;20936;-68
2021/07/13 04:56:43;;;;;;;17.80;16.40;;;23.00;99.90;;;;;;4973031;28;20604;-68
2021/07/13 04:59:09;;;;;;;17.40;16.00;;;23.10;99.90;;;;;;4969734;28;20797;-68
2021/07/13 05:01:36;;;;;;;20.43;18.73;;;22.90;99.90;;;;;;4973124;28;20500;-68
2021/07/13 05:04:03;;;;;;;18.97;17.47;;;22.70;99.90;;;;;;4966916;28;20468;-68
2021/07/13 05:06:29;;;;;;;21.67;19.70;;;22.30;99.90;;;;;;4958745;29;20460;-68
2021/07/13 05:08:56;;;;;;;19.27;17.60;;;22.00;99.90;;;;;;4959461;28;20522;-68
2021/07/13 05:11:24;;;;;;;20.53;18.63;;;22.00;99.90;;;;;;4958126;28;20575;-68
2021/07/13 05:13:51;;;;;;;19.60;18.00;;;22.20;99.90;;;;;;4960195;28;20464;-68
2021/07/13 05:16:17;;;;;;;19.60;18.00;;;22.50;99.90;;;;;;4957623;29;20883;-68
2021/07/13 05:18:44;;;;;;;19.97;18.30;;;23.10;99.90;;;;;;4958831;28;20929;-68
2021/07/13 05:21:12;;;;;;;18.10;16.80;;;23.70;99.90;;;;;;4977070;28;20483;-68
2021/07/13 05:23:39;;;;;;;16.80;15.60;;;24.40;99.90;;;;;;4959282;28;20475;-69
2021/07/13 05:26:06;;;;;;;17.37;15.87;;;25.00;99.90;;;;;;4960088;28;20465;-70
2021/07/13 05:28:34;;;;;;;18.10;16.90;;;25.40;99.90;;;;;;4961195;28;20517;-68
2021/07/13 05:31:00;;;;;;;16.67;15.50;;;25.80;99.90;;;;;;4957406;29;20609;-67
2021/07/13 05:33:27;;;;;;;17.20;16.07;;;26.10;99.90;;;;;;4957121;29;20525;-67
2021/07/13 05:35:54;;;;;;;16.10;15.00;;;26.70;99.90;;;;;;4962028;28;20462;-68
2021/07/13 05:38:20;;;;;;;17.57;16.37;;;26.90;99.90;;;;;;4956936;29;20471;-68
2021/07/13 05:40:47;;;;;;;17.10;16.07;;;27.20;99.90;;;;;;4970943;28;20516;-68
2021/07/13 05:43:15;;;;;;;16.27;15.13;;;27.30;99.90;;;;;;4976277;28;20469;-68
2021/07/13 05:45:43;;;;;;;17.00;16.00;;;27.60;99.90;;;;;;4968672;28;20467;-68
2021/07/13 05:48:10;;;;;;;16.40;15.40;;;27.50;99.90;;;;;;4957089;29;20496;-68
2021/07/13 05:50:37;;;;;;;16.70;15.70;;;27.60;99.90;;;;;;4968328;28;20481;-68
2021/07/13 05:53:05;;;;;;;17.40;16.30;;;27.60;99.90;;;;;;4976284;28;20521;-68
2021/07/13 05:55:32;;;;;;;16.40;15.27;;;27.80;99.90;;;;;;4970973;28;20471;-68
2021/07/13 05:57:58;;;;;;;17.33;16.13;;;27.70;99.90;;;;;;4976096;28;20469;-68
2021/07/13 06:00:25;;;;;;;16.13;15.23;;;27.90;99.90;;;;;;4968007;28;20494;-68
2021/07/13 06:02:53;;;;;;;14.47;13.57;;;28.20;99.90;;;;;;4975605;28;20560;-69
2021/07/13 06:05:20;;;;;;;16.53;15.57;;;28.40;99.90;;;;;;4963845;28;20457;-69
2021/07/13 06:07:48;;;;;;;16.03;15.13;;;28.60;99.90;;;;;;4976176;28;20465;-69
2021/07/13 06:10:16;;;;;;;16.03;15.03;;;28.70;99.90;;;;;;4974181;28;22228;-69
2021/07/13 06:12:42;;;;;;;16.10;15.10;;;28.80;99.90;;;;;;4975695;28;20473;-69
2021/07/13 06:15:11;;;;;;;16.30;15.30;;;29.20;99.90;;;;;;4958192;28;20530;-69
2021/07/13 06:17:40;;;;;;;16.17;15.27;;;29.60;99.90;;;;;;4956811;28;20566;-69
2021/07/13 06:20:10;;;;;;;16.27;15.37;;;29.70;99.90;;;;;;4971892;28;20463;-69
2021/07/13 06:22:37;;;;;;;14.33;13.63;;;29.50;99.90;;;;;;4974380;28;20462;-69
2021/07/13 06:25:04;;;;;;;14.57;13.77;;;29.90;99.90;;;;;;4959500;28;20507;-69
2021/07/13 06:27:31;;;;;;;15.50;14.70;;;29.90;99.90;;;;;;4975139;28;20470;-69
2021/07/13 06:29:58;;;;;;;15.80;14.90;;;30.00;99.90;;;;;;4974493;28;20487;-69
2021/07/13 06:32:24;;;;;;;16.83;15.93;;;29.80;99.90;;;;;;4957876;28;20510;-69
2021/07/13 06:34:51;;;;;;;15.97;15.07;;;29.60;99.90;;;;;;4957039;28;20464;-69
2021/07/13 06:37:19;;;;;;;17.10;16.07;;;29.40;99.90;;;;;;4970639;28;20467;-69
2021/07/13 06:39:46;;;;;;;16.97;15.87;;;29.30;99.90;;;;;;4973913;28;20467;-69
2021/07/13 06:42:13;;;;;;;15.63;14.73;;;29.50;99.90;;;;;;4965026;28;20596;-69
2021/07/13 06:44:39;;;;;;;14.90;14.00;;;29.80;99.90;;;;;;4975171;28;20466;-69
2021/07/13 06:47:06;;;;;;;15.27;14.17;;;29.90;99.90;;;;;;4975167;28;20475;-69
2021/07/13 06:49:33;;;;;;;15.57;14.57;;;30.30;99.90;;;;;;4958334;28;20990;-69
2021/07/13 06:52:00;;;;;;;14.53;13.83;;;30.30;99.90;;;;;;4956741;28;20919;-69
2021/07/13 06:54:28;;;;;;;14.97;14.07;;;30.30;99.90;;;;;;4955656;29;20546;-73
2021/07/13 06:56:55;;;;;;;14.40;13.60;;;30.50;99.90;;;;;;4965184;28;20481;-72
2021/07/13 06:59:22;;;;;;;14.90;14.17;;;30.60;99.90;;;;;;4962986;28;20460;-68
2021/07/13 07:01:49;;;;;;;15.70;14.80;;;30.40;99.90;;;;;;4963614;28;20502;-67
2021/07/13 07:04:15;;;;;;;14.77;13.77;;;29.30;99.90;;;;;;4966289;28;20463;-67
2021/07/13 07:06:42;;;;;;;14.97;14.10;;;29.20;99.90;;;;;;4961965;28;20935;-66
2021/07/13 07:09:09;;;;;;;14.97;14.17;;;29.60;99.90;;;;;;4969454;28;20523;-70
2021/07/13 07:11:37;;;;;;;15.50;14.43;;;29.60;99.90;;;;;;4955857;29;20487;-69
2021/07/13 07:14:04;;;;;;;14.33;13.50;;;30.00;99.90;;;;;;4963414;28;20813;-70
2021/07/13 07:16:30;;;;;;;14.47;13.67;;;30.40;99.90;;;;;;4957750;28;20971;-70
2021/07/13 07:18:57;;;;;;;13.40;12.80;;;30.50;99.90;;;;;;4963696;28;20459;-69
2021/07/13 07:21:24;;;;;;;13.60;12.90;;;31.10;99.90;;;;;;4969503;28;20545;-70
2021/07/13 07:23:50;;;;;;;29.43;27.67;;;30.90;99.90;;;;;;4974764;28;20847;-71
2021/07/13 07:26:17;;;;;;;14.33;13.33;;;31.30;99.90;;;;;;4966579;28;20879;-71
2021/07/13 07:28:45;;;;;;;12.97;12.37;;;31.10;99.90;;;;;;4961706;28;20498;-71
2021/07/13 07:31:14;;;;;;;14.20;13.50;;;31.00;99.90;;;;;;4955711;29;20602;-69
2021/07/13 07:33:41;;;;;;;14.30;13.60;;;30.90;99.90;;;;;;4969464;28;20470;-70
2021/07/13 07:36:08;;;;;;;13.50;12.80;;;31.00;99.90;;;;;;4965971;28;20494;-69
2021/07/13 07:38:34;;;;;;;14.70;13.83;;;31.30;99.90;;;;;;4955138;28;20990;-70
2021/07/13 07:41:01;;;;;;;15.67;14.77;;;31.20;99.90;;;;;;4962243;28;20490;-70
2021/07/13 07:43:28;;;;;;;12.87;12.23;;;31.20;99.90;;;;;;4966848;28;20462;-70
2021/07/13 07:45:56;;;;;;;13.47;12.70;;;31.10;99.90;;;;;;4973370;28;20530;-69
2021/07/13 07:48:22;;;;;;;13.23;12.47;;;31.30;99.90;;;;;;4973269;28;20516;-69
2021/07/13 07:50:49;;;;;;;11.80;11.30;;;30.90;99.90;;;;;;4965439;28;20494;-69
2021/07/13 07:53:16;;;;;;;14.07;13.37;;;30.40;99.90;;;;;;4964485;28;20464;-69
2021/07/13 07:55:43;;;;;;;15.20;14.30;;;29.80;99.90;;;;;;4967435;28;20468;-69
2021/07/13 07:58:10;;;;;;;15.33;14.43;;;28.70;99.90;;;;;;4962893;28;20497;-69
2021/07/13 08:00:37;;;;;;;13.50;12.70;;;28.40;99.90;;;;;;4954685;28;21801;-69
2021/07/13 08:03:05;;;;;;;13.90;13.10;;;28.40;99.90;;;;;;4958602;28;20572;-69
2021/07/13 08:05:32;;;;;;;13.30;12.50;;;29.00;99.90;;;;;;4961873;28;20987;-70
2021/07/13 08:07:59;;;;;;;14.37;13.33;;;29.30;99.90;;;;;;4964158;28;20643;-69
2021/07/13 08:10:26;;;;;;;12.93;12.17;;;29.50;99.90;;;;;;4961604;28;20502;-69
2021/07/13 08:12:53;;;;;;;13.60;12.87;;;29.50;99.90;;;;;;4955693;28;20466;-69
2021/07/13 08:15:20;;;;;;;13.07;12.47;;;29.60;99.90;;;;;;4954272;29;20512;-69
2021/07/13 08:17:46;;;;;;;12.93;12.00;;;29.80;99.90;;;;;;4960531;28;20513;-69
2021/07/13 08:20:15;;;;;;;13.00;12.30;;;30.00;99.90;;;;;;4969290;28;20460;-69
2021/07/13 08:22:45;;;;;;;11.07;10.57;;;30.40;99.90;;;;;;4957021;28;20458;-70
2021/07/13 08:25:13;;;;;;;12.10;11.40;;;30.50;99.90;;;;;;4972582;28;20472;-71
2021/07/13 08:27:39;;;;;;;10.47;9.97;;;30.40;99.90;;;;;;4968802;28;20994;-71
2021/07/13 08:30:07;;;;;;;12.70;12.03;;;30.30;99.90;;;;;;4960799;28;20494;-70
2021/07/13 08:32:33;;;;;;;12.40;11.80;;;30.10;99.90;;;;;;4964966;28;20468;-69
2021/07/13 08:35:00;;;;;;;13.40;12.70;;;29.60;99.90;;;;;;4954159;29;20967;-70
2021/07/13 08:37:32;;;;;;;12.67;11.97;;;29.90;99.90;;;;;;4954090;29;20470;-70
2021/07/13 08:39:59;;;;;;;10.63;10.13;;;30.10;99.90;;;;;;4953548;28;20825;-69
2021/07/13 08:42:26;;;;;;;10.93;10.50;;;30.30;99.90;;;;;;4954128;28;20830;-70
2021/07/13 08:44:52;;;;;;;12.23;11.53;;;30.40;99.90;;;;;;4954294;29;20882;-70
2021/07/13 08:47:19;;;;;;;12.53;11.83;;;30.30;99.90;;;;;;4954583;29;20511;-70
2021/07/13 08:49:46;;;;;;;11.70;11.07;;;30.30;99.90;;;;;;4953626;28;20491;-70
2021/07/13 08:52:14;;;;;;;11.47;10.80;;;29.80;99.90;;;;;;4953872;29;20546;-70
2021/07/13 08:54:42;;;;;;;11.70;11.10;;;29.90;99.90;;;;;;4953420;29;20526;-70
2021/07/13 08:57:10;;;;;;;11.57;10.97;;;29.90;99.90;;;;;;4954083;29;20529;-70
2021/07/13 08:59:38;;;;;;;10.90;10.30;;;29.80;99.90;;;;;;4954064;29;20527;-70
2021/07/13 09:02:05;;;;;;;11.70;11.00;;;29.60;99.90;;;;;;4953855;29;20506;-70
2021/07/13 09:04:34;;;;;;;12.30;11.50;;;29.00;99.90;;;;;;4968020;28;20488;-70
2021/07/13 09:07:01;;;;;;;12.30;11.70;;;28.70;99.90;;;;;;4973554;28;20482;-70
2021/07/13 09:09:30;;;;;;;12.53;11.83;;;29.00;99.90;;;;;;4972400;28;20553;-70
2021/07/13 09:12:11;;;;;;;12.50;11.70;;;29.10;99.90;;;;;;4970244;28;20499;-70
2021/07/13 09:14:48;;;;;;;12.10;11.40;;;29.20;99.90;;;;;;4967491;28;20496;-70
2021/07/13 09:17:29;;;;;;;11.13;10.53;;;29.30;99.90;;;;;;4971869;28;20478;-70
2021/07/13 09:20:07;;;;;;;11.60;11.00;;;28.90;99.90;;;;;;4972617;28;20455;-70
2021/07/13 09:22:35;;;;;;;12.10;11.23;;;28.40;99.90;;;;;;4951915;28;20459;-70
2021/07/13 09:25:21;;;;;;;11.50;10.80;;;28.30;99.90;;;;;;4971667;28;20480;-70
2021/07/13 09:28:05;;;;;;;10.00;9.50;;;28.40;99.90;;;;;;4969546;28;20564;-70
2021/07/13 09:30:32;;;;;;;10.30;9.80;;;28.50;99.90;;;;;;4972727;28;20585;-69
2021/07/13 09:33:14;;;;;;;11.97;11.17;;;28.40;99.90;;;;;;4972447;28;20512;-70
2021/07/13 09:35:57;;;;;;;11.17;10.53;;;28.10;99.90;;;;;;4973134;28;20471;-70
2021/07/13 09:38:24;;;;;;;12.07;11.37;;;27.90;99.90;;;;;;4966615;28;20455;-67
2021/07/13 09:41:05;;;;;;;11.70;11.00;;;27.70;99.90;;;;;;4953136;29;20936;-67
2021/07/13 09:43:48;;;;;;;11.37;10.70;;;27.60;99.90;;;;;;4967153;28;20473;-67
2021/07/13 09:46:32;;;;;;;11.33;10.67;;;27.50;99.90;;;;;;4973433;28;20460;-67
2021/07/13 09:49:15;;;;;;;12.37;11.67;;;27.40;99.90;;;;;;4973515;28;20464;-67
2021/07/13 09:51:45;;;;;;;11.73;10.83;;;27.30;99.90;;;;;;4976072;28;20488;-67
2021/07/13 09:54:33;;;;;;;11.60;10.90;;;27.40;99.90;;;;;;4958796;28;20462;-69
2021/07/13 09:57:00;;;;;;;9.83;9.20;;;27.40;99.90;;;;;;4967919;28;20477;-69
2021/07/13 09:59:28;;;;;;;10.67;10.07;;;27.50;99.90;;;;;;4977066;28;20868;-69
2021/07/13 10:01:55;;;;;;;9.20;8.70;;;27.60;99.90;;;;;;4975568;28;20519;-67
2021/07/13 10:04:22;;;;;;;8.63;8.13;;;27.50;99.90;;;;;;4975981;28;20489;-67
2021/07/13 10:06:52;;;;;;;9.80;9.10;;;27.40;99.90;;;;;;4975531;28;20576;-68
2021/07/13 10:09:24;;;;;;;9.87;9.33;;;27.40;99.90;;;;;;4975090;28;20976;-67
2021/07/13 10:11:51;;;;;;;9.30;8.60;;;27.50;99.90;;;;;;4976335;28;20495;-74
2021/07/13 10:14:19;;;;;;;10.20;9.60;;;27.80;99.90;;;;;;4976005;28;20582;-74
2021/07/13 10:16:47;;;;;;;10.00;9.30;;;28.10;99.90;;;;;;4975752;28;20536;-74
2021/07/13 10:19:14;;;;;;;10.63;10.00;;;28.30;99.90;;;;;;4965824;28;20481;-74
2021/07/13 10:21:44;;;;;;;8.33;7.83;;;28.50;99.90;;;;;;4976016;28;20491;-73
2021/07/13 10:24:11;;;;;;;7.73;7.33;;;28.80;99.90;;;;;;4975916;28;20466;-73
2021/07/13 10:26:43;;;;;;;8.70;8.20;;;28.90;99.90;;;;;;4976183;28;20897;-74
2021/07/13 10:29:36;;;;;;;7.20;6.90;;;28.90;99.90;;;;;;4976874;28;20566;-74
2021/07/13 10:32:05;;;;;;;7.77;7.37;;;28.60;99.90;;;;;;4957111;28;20520;-73
2021/07/13 10:34:48;;;;;;;6.93;6.70;;;28.70;99.90;;;;;;4956900;28;20814;-72
2021/07/13 10:37:25;;;;;;;7.17;6.87;;;28.80;99.90;;;;;;4974005;28;20553;-73
2021/07/13 10:39:53;;;;;;;7.40;6.90;;;28.70;99.90;;;;;;4975021;28;20466;-72
2021/07/13 10:42:45;;;;;;;7.97;7.50;;;28.60;99.90;;;;;;4975844;28;20497;-73
2021/07/13 10:45:13;;;;;;;7.07;6.77;;;28.50;99.90;;;;;;4967287;28;20474;-73
2021/07/13 10:48:00;;;;;;;7.00;6.70;;;28.40;99.90;;;;;;4974281;28;20501;-75
2021/07/13 10:50:57;;;;;;;6.70;6.43;;;28.40;99.90;;;;;;4961059;28;20498;-72
2021/07/13 10:53:29;;;;;;;7.27;6.77;;;28.30;99.90;;;;;;4941328;28;20476;-73
2021/07/13 10:56:13;;;;;;;6.90;6.50;;;28.20;99.90;;;;;;4974802;28;20556;-73
2021/07/13 10:58:49;;;;;;;7.33;6.93;;;28.30;99.90;;;;;;4976075;28;20814;-73
2021/07/13 11:01:24;;;;;;;8.00;7.40;;;28.50;99.90;;;;;;4970052;28;20488;-67
2021/07/13 11:04:09;;;;;;;6.57;6.30;;;28.50;99.90;;;;;;4976337;28;20797;-67
2021/07/13 11:06:55;;;;;;;7.13;6.83;;;28.60;99.90;;;;;;4974513;28;20558;-67
2021/07/13 11:09:25;;;;;;;7.57;7.07;;;28.80;99.90;;;;;;4967383;28;20456;-67
2021/07/13 11:11:53;;;;;;;7.53;7.20;;;28.80;99.90;;;;;;4976725;28;20989;-67
2021/07/13 11:14:20;;;;;;;7.37;7.07;;;28.50;99.90;;;;;;4986702;28;21349;-67
2021/07/13 11:16:50;;;;;;;6.53;6.23;;;28.40;99.90;;;;;;4967085;28;20473;-67
2021/07/13 11:19:18;;;;;;;7.53;7.13;;;28.40;99.90;;;;;;4963736;28;20466;-68
2021/07/13 11:21:47;;;;;;;7.00;6.50;;;28.30;99.90;;;;;;4977108;28;20506;-66
2021/07/13 11:24:16;;;;;;;6.47;6.07;;;28.40;99.90;;;;;;4973055;28;20498;-66
2021/07/13 11:26:45;;;;;;;6.00;5.80;;;28.60;99.90;;;;;;4962470;29;20569;-67
2021/07/13 11:29:18;;;;;;;5.97;5.57;;;28.80;99.90;;;;;;4957114;29;20579;-67
2021/07/13 11:31:48;;;;;;;6.80;6.50;;;28.90;99.90;;;;;;4957139;29;20841;-68
2021/07/13 11:34:19;;;;;;;6.10;5.90;;;29.00;99.90;;;;;;4956695;29;20559;-69
2021/07/13 11:36:48;;;;;;;5.90;5.70;;;29.20;99.90;;;;;;4956296;29;20503;-69
2021/07/13 11:39:17;;;;;;;6.17;5.87;;;29.10;99.90;;;;;;4954639;28;20526;-69
2021/07/13 11:41:44;;;;;;;5.53;5.30;;;29.00;99.90;;;;;;4955207;29;20683;-69
2021/07/13 11:44:12;;;;;;;6.13;5.93;;;28.90;99.90;;;;;;4965545;28;20959;-69
2021/07/13 11:46:40;;;;;;;5.87;5.67;;;28.90;99.90;;;;;;4972642;28;20472;-69
2021/07/13 11:49:09;;;;;;;5.80;5.60;;;28.90;99.90;;;;;;4971431;28;20607;-69
2021/07/13 11:51:39;;;;;;;5.90;5.70;;;28.90;99.90;;;;;;4970837;28;20500;-70
2021/07/13 11:54:07;;;;;;;5.30;5.20;;;29.00;99.90;;;;;;4962955;28;20470;-70
2021/07/13 11:56:35;;;;;;;5.80;5.60;;;29.10;99.90;;;;;;4973955;28;20467;-70
2021/07/13 11:59:03;;;;;;;6.50;6.00;;;29.20;99.90;;;;;;4974063;28;20477;-70
2021/07/13 12:01:31;;;;;;;5.53;5.23;;;29.20;99.90;;;;;;4965796;28;20501;-70
2021/07/13 12:04:02;;;;;;;5.60;5.50;;;29.20;99.90;;;;;;4973344;28;20467;-70
2021/07/13 12:06:29;;;;;;;5.80;5.60;;;29.20;99.90;;;;;;4959163;28;20959;-70
2021/07/13 12:08:59;;;;;;;6.00;5.80;;;29.20;99.90;;;;;;4970870;28;20468;-70
2021/07/13 12:11:28;;;;;;;6.17;5.77;;;29.10;99.90;;;;;;4966483;28;20487;-70
2021/07/13 12:13:56;;;;;;;6.73;6.43;;;29.00;99.90;;;;;;4974370;28;20994;-70
2021/07/13 12:16:26;;;;;;;5.90;5.70;;;29.00;99.90;;;;;;4973094;28;20460;-70
2021/07/13 12:18:54;;;;;;;5.60;5.40;;;29.00;99.90;;;;;;4959993;28;20780;-69
2021/07/13 12:21:21;;;;;;;5.40;5.20;;;29.10;99.90;;;;;;4972844;28;20516;-69
2021/07/13 12:23:54;;;;;;;5.23;5.13;;;29.20;99.90;;;;;;4955191;29;20960;-69
2021/07/13 12:26:29;;;;;;;5.97;5.67;;;29.30;99.90;;;;;;4972328;28;20470;-69
2021/07/13 12:29:09;;;;;;;6.10;5.80;;;29.50;99.90;;;;;;4957630;28;20997;-70
2021/07/13 12:31:37;;;;;;;5.10;5.00;;;29.60;99.90;;;;;;4973384;28;20530;-69
2021/07/13 12:34:05;;;;;;;5.27;5.00;;;29.90;99.90;;;;;;4973923;28;20471;-69
2021/07/13 12:36:34;;;;;;;5.53;5.33;;;29.90;99.90;;;;;;4971669;28;20583;-69
2021/07/13 12:39:14;;;;;;;5.13;5.03;;;29.80;99.90;;;;;;4965418;28;20557;-70
2021/07/13 12:41:44;;;;;;;4.90;4.80;;;29.80;99.90;;;;;;4970517;28;20499;-70
2021/07/13 12:44:29;;;;;;;5.37;5.20;;;29.80;99.90;;;;;;4971668;28;20453;-68
2021/07/13 12:47:13;;;;;;;5.33;5.20;;;29.70;99.90;;;;;;4973354;28;20471;-68
2021/07/13 12:49:40;;;;;;;4.93;4.83;;;29.80;99.90;;;;;;4973560;28;20515;-69
2021/07/13 12:52:11;;;;;;;5.40;5.30;;;30.00;99.90;;;;;;4973483;28;20514;-68
2021/07/13 12:54:56;;;;;;;4.90;4.70;;;30.00;99.90;;;;;;4972987;28;20833;-68
2021/07/13 12:57:32;;;;;;;4.53;4.43;;;29.80;99.90;;;;;;4959139;28;20550;-68
2021/07/13 13:00:00;;;;;;;5.13;4.93;;;29.70;99.90;;;;;;4967904;28;20574;-68
2021/07/13 13:02:27;;;;;;;4.73;4.47;;;29.80;99.90;;;;;;4972853;28;20853;-71
2021/07/13 13:04:54;;;;;;;4.73;4.50;;;29.80;99.90;;;;;;4958211;28;20460;-71
2021/07/13 13:07:21;;;;;;;4.63;4.50;;;29.70;99.90;;;;;;4964181;28;20467;-71
2021/07/13 13:09:48;;;;;;;5.30;5.20;;;29.50;99.90;;;;;;4972690;28;20505;-70
2021/07/13 13:12:15;;;;;;;4.70;4.60;;;29.30;99.90;;;;;;4954439;28;20495;-70
2021/07/13 13:14:44;;;;;;;5.40;5.20;;;29.30;99.90;;;;;;4966722;28;21033;-70
2021/07/13 13:17:12;;;;;;;5.20;5.10;;;29.30;99.90;;;;;;4962075;28;20761;-70
2021/07/13 13:19:39;;;;;;;4.40;4.27;;;29.40;99.90;;;;;;4966254;28;20495;-68
2021/07/13 13:22:06;;;;;;;4.20;4.20;;;29.40;99.90;;;;;;4969080;28;21002;-69
2021/07/13 13:24:32;;;;;;;4.60;4.50;;;29.20;99.90;;;;;;4963930;28;20806;-70
2021/07/13 13:26:59;;;;;;;4.67;4.60;;;29.20;99.90;;;;;;4976002;28;20517;-70
2021/07/13 13:29:26;;;;;;;5.47;5.10;;;29.30;99.90;;;;;;4977371;28;20483;-69
2021/07/13 13:31:54;;;;;;;4.60;4.50;;;29.50;99.90;;;;;;4977352;28;20505;-70
2021/07/13 13:34:22;;;;;;;5.07;4.87;;;29.40;99.90;;;;;;4976947;28;20537;-70
2021/07/13 13:36:50;;;;;;;5.17;4.77;;;29.40;99.90;;;;;;4970131;28;20534;-69
2021/07/13 13:39:18;;;;;;;4.70;4.60;;;29.40;99.90;;;;;;4960335;28;20507;-70
2021/07/13 13:41:45;;;;;;;4.60;4.50;;;29.30;99.90;;;;;;4977368;28;20524;-69
2021/07/13 13:44:12;;;;;;;5.40;4.97;;;29.20;99.90;;;;;;4976627;28;20467;-69
2021/07/13 13:46:38;;;;;;;4.90;4.80;;;29.10;99.90;;;;;;4975436;28;20814;-70
2021/07/13 13:49:07;;;;;;;4.63;4.53;;;29.10;99.90;;;;;;4957478;28;20468;-70
2021/07/13 13:51:34;;;;;;;4.40;4.30;;;29.00;99.90;;;;;;4957162;29;20511;-70
2021/07/13 13:54:01;;;;;;;4.70;4.60;;;29.10;99.90;;;;;;4956013;29;20979;-70
2021/07/13 13:56:29;;;;;;;4.90;4.80;;;29.20;99.90;;;;;;4957411;29;20465;-71
2021/07/13 13:58:57;;;;;;;4.70;4.50;;;29.20;99.90;;;;;;4976282;28;20521;-70
2021/07/13 14:01:24;;;;;;;4.93;4.83;;;29.20;99.90;;;;;;4961566;28;20844;-67
2021/07/13 14:03:51;;;;;;;4.70;4.60;;;29.20;99.90;;;;;;4956917;29;20474;-67
2021/07/13 14:06:19;;;;;;;5.00;4.90;;;29.10;99.90;;;;;;4971401;28;20937;-69
2021/07/13 14:08:47;;;;;;;5.00;4.90;;;29.00;99.90;;;;;;4975575;28;20784;-69
2021/07/13 14:11:15;;;;;;;5.07;4.90;;;29.10;99.90;;;;;;4970969;28;20489;-69
2021/07/13 14:13:43;;;;;;;4.63;4.57;;;29.10;99.90;;;;;;4967239;28;20516;-69
2021/07/13 14:16:10;;;;;;;4.83;4.70;;;29.10;99.90;;;;;;4975980;28;20471;-69
2021/07/13 14:18:37;;;;;;;4.97;4.87;;;29.20;99.90;;;;;;4970474;28;20539;-69
2021/07/13 14:21:05;;;;;;;4.80;4.70;;;29.30;99.90;;;;;;4975065;28;20570;-69
2021/07/13 14:23:33;;;;;;;5.03;4.93;;;29.40;99.90;;;;;;4956650;28;20494;-69
2021/07/13 14:26:00;;;;;;;5.20;4.80;;;29.50;99.90;;;;;;4965200;28;20472;-69
2021/07/13 14:28:27;;;;;;;4.90;4.80;;;29.60;99.90;;;;;;4974919;28;20481;-69
2021/07/13 14:30:54;;;;;;;5.10;4.90;;;29.60;99.90;;;;;;4975873;28;20497;-69
2021/07/13 14:33:21;;;;;;;5.10;5.00;;;29.60;99.90;;;;;;4975399;28;20472;-69
2021/07/13 14:35:47;;;;;;;4.97;4.87;;;29.50;99.90;;;;;;4975255;28;20502;-69
2021/07/13 14:38:14;;;;;;;5.80;5.57;;;29.50;99.90;;;;;;4975409;28;20465;-69
2021/07/13 14:40:42;;;;;;;4.60;4.50;;;29.40;99.90;;;;;;4974601;28;20484;-69
2021/07/13 14:43:11;;;;;;;4.83;4.73;;;29.50;99.90;;;;;;4975193;28;20485;-68
2021/07/13 14:45:37;;;;;;;5.13;5.03;;;29.50;99.90;;;;;;4974953;28;20520;-73
2021/07/13 14:48:04;;;;;;;5.10;5.00;;;29.50;99.90;;;;;;4974260;28;20548;-69
2021/07/13 14:50:31;;;;;;;4.80;4.70;;;29.40;99.90;;;;;;4973693;28;20487;-69
2021/07/13 14:52:58;;;;;;;4.80;4.70;;;29.40;99.90;;;;;;4955851;29;20522;-69
2021/07/13 14:55:24;;;;;;;4.90;4.80;;;29.50;99.90;;;;;;4955501;28;20910;-69
2021/07/13 14:57:52;;;;;;;5.00;4.83;;;29.70;99.90;;;;;;4969267;28;20799;-69
2021/07/13 15:00:20;;;;;;;5.00;4.90;;;29.70;99.90;;;;;;4975156;28;20483;-66
2021/07/13 15:02:48;;;;;;;4.37;4.27;;;29.80;99.90;;;;;;4965420;28;20836;-69
2021/07/13 15:05:15;;;;;;;5.90;5.60;;;29.70;99.90;;;;;;4963570;28;20482;-72
2021/07/13 15:07:41;;;;;;;5.17;5.00;;;29.60;99.90;;;;;;4982730;28;20475;-73
2021/07/13 15:10:09;;;;;;;4.80;4.70;;;29.50;99.90;;;;;;4972532;28;20486;-68
2021/07/13 15:12:36;;;;;;;5.80;5.60;;;29.50;99.90;;;;;;4975118;28;20553;-68
2021/07/13 15:15:06;;;;;;;5.80;5.60;;;29.40;99.90;;;;;;4963532;28;20626;-69
2021/07/13 15:17:33;;;;;;;5.17;4.93;;;29.30;99.90;;;;;;4964039;28;20463;-69
2021/07/13 15:19:59;;;;;;;5.80;5.60;;;29.30;99.90;;;;;;4973928;28;20471;-68
2021/07/13 15:22:26;;;;;;;4.93;4.83;;;29.30;99.90;;;;;;4969441;28;20987;-69
2021/07/13 15:24:53;;;;;;;5.53;5.23;;;29.30;99.90;;;;;;4959194;28;20795;-69
2021/07/13 15:27:20;;;;;;;5.40;5.20;;;29.30;99.90;;;;;;4957457;28;21002;-67
2021/07/13 15:29:46;;;;;;;6.00;5.60;;;29.30;99.90;;;;;;4961873;28;20813;-67
2021/07/13 15:32:14;;;;;;;5.67;5.47;;;29.30;99.90;;;;;;4958856;28;20491;-68
2021/07/13 15:34:41;;;;;;;5.07;4.97;;;29.50;99.90;;;;;;4961153;28;20465;-66
2021/07/13 15:37:08;;;;;;;5.40;5.20;;;29.60;99.90;;;;;;4968646;28;20456;-68
2021/07/13 15:39:34;;;;;;;5.40;5.30;;;29.60;99.90;;;;;;4958232;28;20923;-68
2021/07/13 15:42:05;;;;;;;5.37;5.27;;;29.60;99.90;;;;;;4963008;28;20591;-66
2021/07/13 15:44:31;;;;;;;5.80;5.70;;;29.60;99.90;;;;;;4974817;28;20541;-66
2021/07/13 15:46:58;;;;;;;6.33;6.13;;;29.40;99.90;;;;;;4959867;28;20466;-66
2021/07/13 15:49:26;;;;;;;6.50;6.03;;;29.30;99.90;;;;;;4954897;28;20944;-66
2021/07/13 15:51:55;;;;;;;6.80;6.47;;;29.30;99.90;;;;;;4955622;28;20500;-66
2021/07/13 15:54:23;;;;;;;6.00;5.67;;;29.30;99.90;;;;;;4954532;29;20537;-66
2021/07/13 15:56:49;;;;;;;6.33;6.03;;;29.30;99.90;;;;;;4962221;28;20566;-70
2021/07/13 15:59:16;;;;;;;6.50;6.20;;;29.20;99.90;;;;;;4974495;28;20833;-66
2021/07/13 16:01:43;;;;;;;6.37;6.07;;;29.10;99.90;;;;;;4968569;28;20514;-71
2021/07/13 16:04:10;;;;;;;5.97;5.87;;;29.20;99.90;;;;;;4971160;28;20471;-72
2021/07/13 16:06:37;;;;;;;6.40;6.00;;;29.10;99.90;;;;;;4971444;28;20995;-72
2021/07/13 16:09:05;;;;;;;6.70;6.50;;;29.00;99.90;;;;;;4973212;28;20478;-72
2021/07/13 16:11:31;;;;;;;6.73;6.33;;;29.00;99.90;;;;;;4960554;28;20499;-69
2021/07/13 16:13:58;;;;;;;5.60;5.50;;;28.90;99.90;;;;;;4955502;28;20480;-68
2021/07/13 16:16:25;;;;;;;7.50;7.10;;;28.80;99.90;;;;;;4955922;28;20525;-68
2021/07/13 16:18:51;;;;;;;6.53;6.00;;;28.80;99.90;;;;;;4960689;28;20474;-69
2021/07/13 16:21:18;;;;;;;6.10;5.90;;;28.70;99.90;;;;;;4967966;28;20479;-68
2021/07/13 16:23:46;;;;;;;6.07;5.87;;;28.70;99.90;;;;;;4954933;28;20466;-68
2021/07/13 16:26:12;;;;;;;6.10;5.90;;;28.80;99.90;;;;;;4953871;29;20518;-69
2021/07/13 16:28:39;;;;;;;6.37;6.17;;;28.70;99.90;;;;;;4970545;28;20529;-69
2021/07/13 16:31:07;;;;;;;6.27;6.07;;;28.80;99.90;;;;;;4973245;28;20589;-69
2021/07/13 16:33:33;;;;;;;6.17;5.97;;;28.80;99.90;;;;;;4971056;28;20466;-69
2021/07/13 16:36:00;;;;;;;6.67;6.27;;;28.80;99.90;;;;;;4963662;28;20955;-69
2021/07/13 16:38:26;;;;;;;6.17;5.90;;;28.80;99.90;;;;;;4953705;29;20464;-69
2021/07/13 16:40:56;;;;;;;5.80;5.70;;;28.80;99.90;;;;;;4964344;28;20548;-69
2021/07/13 16:43:23;;;;;;;6.60;6.20;;;28.80;99.90;;;;;;4968824;28;20987;-69
2021/07/13 16:45:50;;;;;;;6.23;5.93;;;28.70;99.90;;;;;;4973263;28;20525;-69